<?xml version="1.0" encoding="UTF-8" standalone="no" ?>
<gpx xmlns="http://www.topografix.com/GPX/1/1" xmlns:xsi="http://www.w3.org/2001/XMLSchema-instance" xsi:schemaLocation="http://www.topografix.com/GPX/1/1 http://www.topografix.com/GPX/1/1/gpx.xsd" version="1.1" creator="VisuGPX - https://www.visugpx.com">
  <metadata>
    <name>Col du Sambuis</name>
    <desc><![CDATA[Col du Sambuis depuis Valmaure en A/R]]></desc>
  </metadata>
  <trk>
    <name><![CDATA[Tracé actuel: 25 FEV 2018 08:17]]></name>
    <trkseg>
      <trkpt lat="45.2829" lon="6.21002">
        <ele>1212.36</ele>
        <time>2018-02-25T07:26:29Z</time>
      </trkpt>
      <trkpt lat="45.28293" lon="6.20999">
        <ele>1211.4</ele>
        <time>2018-02-25T07:30:15Z</time>
      </trkpt>
      <trkpt lat="45.28305" lon="6.20998">
        <ele>1216.21</ele>
        <time>2018-02-25T07:32:06Z</time>
      </trkpt>
      <trkpt lat="45.28319" lon="6.20989">
        <ele>1219.57</ele>
        <time>2018-02-25T07:35:46Z</time>
      </trkpt>
      <trkpt lat="45.28327" lon="6.20955">
        <ele>1223.42</ele>
        <time>2018-02-25T07:38:06Z</time>
      </trkpt>
      <trkpt lat="45.28332" lon="6.20915">
        <ele>1229.66</ele>
        <time>2018-02-25T07:38:58Z</time>
      </trkpt>
      <trkpt lat="45.28336" lon="6.20884">
        <ele>1233.99</ele>
        <time>2018-02-25T07:39:38Z</time>
      </trkpt>
      <trkpt lat="45.28342" lon="6.20849">
        <ele>1242.16</ele>
        <time>2018-02-25T07:40:39Z</time>
      </trkpt>
      <trkpt lat="45.28338" lon="6.20816">
        <ele>1248.41</ele>
        <time>2018-02-25T07:41:30Z</time>
      </trkpt>
      <trkpt lat="45.28364" lon="6.20809">
        <ele>1255.62</ele>
        <time>2018-02-25T07:42:25Z</time>
      </trkpt>
      <trkpt lat="45.28369" lon="6.20784">
        <ele>1262.35</ele>
        <time>2018-02-25T07:43:14Z</time>
      </trkpt>
      <trkpt lat="45.28355" lon="6.20747">
        <ele>1268.12</ele>
        <time>2018-02-25T07:44:13Z</time>
      </trkpt>
      <trkpt lat="45.2835" lon="6.20712">
        <ele>1274.36</ele>
        <time>2018-02-25T07:45:00Z</time>
      </trkpt>
      <trkpt lat="45.28336" lon="6.20688">
        <ele>1278.69</ele>
        <time>2018-02-25T07:45:40Z</time>
      </trkpt>
      <trkpt lat="45.28334" lon="6.20651">
        <ele>1283.98</ele>
        <time>2018-02-25T07:46:22Z</time>
      </trkpt>
      <trkpt lat="45.28349" lon="6.20627">
        <ele>1291.67</ele>
        <time>2018-02-25T07:47:15Z</time>
      </trkpt>
      <trkpt lat="45.28358" lon="6.20604">
        <ele>1299.36</ele>
        <time>2018-02-25T07:48:23Z</time>
      </trkpt>
      <trkpt lat="45.28344" lon="6.20578">
        <ele>1299.84</ele>
        <time>2018-02-25T07:49:12Z</time>
      </trkpt>
      <trkpt lat="45.28335" lon="6.20546">
        <ele>1303.2</ele>
        <time>2018-02-25T07:49:54Z</time>
      </trkpt>
      <trkpt lat="45.28331" lon="6.20514">
        <ele>1303.69</ele>
        <time>2018-02-25T07:51:31Z</time>
      </trkpt>
      <trkpt lat="45.28329" lon="6.20476">
        <ele>1311.38</ele>
        <time>2018-02-25T07:52:53Z</time>
      </trkpt>
      <trkpt lat="45.2832" lon="6.20435">
        <ele>1315.7</ele>
        <time>2018-02-25T07:54:11Z</time>
      </trkpt>
      <trkpt lat="45.2831" lon="6.20395">
        <ele>1321.95</ele>
        <time>2018-02-25T07:54:54Z</time>
      </trkpt>
      <trkpt lat="45.28317" lon="6.20358">
        <ele>1326.76</ele>
        <time>2018-02-25T07:55:49Z</time>
      </trkpt>
      <trkpt lat="45.28288" lon="6.2035">
        <ele>1332.04</ele>
        <time>2018-02-25T07:56:32Z</time>
      </trkpt>
      <trkpt lat="45.28282" lon="6.20316">
        <ele>1334.45</ele>
        <time>2018-02-25T07:57:01Z</time>
      </trkpt>
      <trkpt lat="45.28256" lon="6.20308">
        <ele>1338.29</ele>
        <time>2018-02-25T07:57:41Z</time>
      </trkpt>
      <trkpt lat="45.28247" lon="6.20276">
        <ele>1343.58</ele>
        <time>2018-02-25T07:58:22Z</time>
      </trkpt>
      <trkpt lat="45.28235" lon="6.20243">
        <ele>1347.91</ele>
        <time>2018-02-25T07:59:00Z</time>
      </trkpt>
      <trkpt lat="45.28223" lon="6.20201">
        <ele>1352.23</ele>
        <time>2018-02-25T07:59:43Z</time>
      </trkpt>
      <trkpt lat="45.28212" lon="6.20171">
        <ele>1358.48</ele>
        <time>2018-02-25T08:00:26Z</time>
      </trkpt>
      <trkpt lat="45.28198" lon="6.20142">
        <ele>1362.81</ele>
        <time>2018-02-25T08:01:05Z</time>
      </trkpt>
      <trkpt lat="45.28175" lon="6.2012">
        <ele>1367.61</ele>
        <time>2018-02-25T08:01:49Z</time>
      </trkpt>
      <trkpt lat="45.28156" lon="6.2009">
        <ele>1374.82</ele>
        <time>2018-02-25T08:02:44Z</time>
      </trkpt>
      <trkpt lat="45.28139" lon="6.20063">
        <ele>1380.11</ele>
        <time>2018-02-25T08:03:26Z</time>
      </trkpt>
      <trkpt lat="45.28126" lon="6.20033">
        <ele>1384.44</ele>
        <time>2018-02-25T08:04:09Z</time>
      </trkpt>
      <trkpt lat="45.28114" lon="6.20005">
        <ele>1388.28</ele>
        <time>2018-02-25T08:05:30Z</time>
      </trkpt>
      <trkpt lat="45.28109" lon="6.19978">
        <ele>1391.65</ele>
        <time>2018-02-25T08:06:28Z</time>
      </trkpt>
      <trkpt lat="45.28113" lon="6.19941">
        <ele>1398.86</ele>
        <time>2018-02-25T08:07:05Z</time>
      </trkpt>
      <trkpt lat="45.28115" lon="6.199">
        <ele>1405.58</ele>
        <time>2018-02-25T08:08:17Z</time>
      </trkpt>
      <trkpt lat="45.2812" lon="6.19867">
        <ele>1407.03</ele>
        <time>2018-02-25T08:09:04Z</time>
      </trkpt>
      <trkpt lat="45.28108" lon="6.19845">
        <ele>1410.39</ele>
        <time>2018-02-25T08:10:38Z</time>
      </trkpt>
      <trkpt lat="45.28101" lon="6.19814">
        <ele>1412.31</ele>
        <time>2018-02-25T08:11:17Z</time>
      </trkpt>
      <trkpt lat="45.28104" lon="6.19792">
        <ele>1414.24</ele>
        <time>2018-02-25T08:13:19Z</time>
      </trkpt>
      <trkpt lat="45.28107" lon="6.19756">
        <ele>1416.16</ele>
        <time>2018-02-25T08:13:57Z</time>
      </trkpt>
      <trkpt lat="45.28098" lon="6.19717">
        <ele>1419.04</ele>
        <time>2018-02-25T08:14:47Z</time>
      </trkpt>
      <trkpt lat="45.28081" lon="6.19686">
        <ele>1421.45</ele>
        <time>2018-02-25T08:15:28Z</time>
      </trkpt>
      <trkpt lat="45.2807" lon="6.19658">
        <ele>1423.37</ele>
        <time>2018-02-25T08:16:02Z</time>
      </trkpt>
      <trkpt lat="45.2806" lon="6.1963">
        <ele>1425.77</ele>
        <time>2018-02-25T08:16:40Z</time>
      </trkpt>
      <trkpt lat="45.28044" lon="6.19604">
        <ele>1427.7</ele>
        <time>2018-02-25T08:17:18Z</time>
      </trkpt>
      <trkpt lat="45.28032" lon="6.19579">
        <ele>1429.62</ele>
        <time>2018-02-25T08:17:57Z</time>
      </trkpt>
      <trkpt lat="45.28012" lon="6.19556">
        <ele>1431.54</ele>
        <time>2018-02-25T08:18:50Z</time>
      </trkpt>
      <trkpt lat="45.28004" lon="6.19525">
        <ele>1435.87</ele>
        <time>2018-02-25T08:19:25Z</time>
      </trkpt>
      <trkpt lat="45.27998" lon="6.19493">
        <ele>1438.75</ele>
        <time>2018-02-25T08:20:15Z</time>
      </trkpt>
      <trkpt lat="45.27994" lon="6.19457">
        <ele>1440.67</ele>
        <time>2018-02-25T08:20:50Z</time>
      </trkpt>
      <trkpt lat="45.27988" lon="6.19423">
        <ele>1443.56</ele>
        <time>2018-02-25T08:21:27Z</time>
      </trkpt>
      <trkpt lat="45.27975" lon="6.19385">
        <ele>1446.92</ele>
        <time>2018-02-25T08:22:09Z</time>
      </trkpt>
      <trkpt lat="45.27963" lon="6.19354">
        <ele>1451.25</ele>
        <time>2018-02-25T08:22:47Z</time>
      </trkpt>
      <trkpt lat="45.27954" lon="6.19323">
        <ele>1454.61</ele>
        <time>2018-02-25T08:23:29Z</time>
      </trkpt>
      <trkpt lat="45.2794" lon="6.19292">
        <ele>1458.46</ele>
        <time>2018-02-25T08:24:10Z</time>
      </trkpt>
      <trkpt lat="45.27931" lon="6.19262">
        <ele>1462.78</ele>
        <time>2018-02-25T08:24:50Z</time>
      </trkpt>
      <trkpt lat="45.27925" lon="6.19225">
        <ele>1468.55</ele>
        <time>2018-02-25T08:25:39Z</time>
      </trkpt>
      <trkpt lat="45.2792" lon="6.19186">
        <ele>1472.4</ele>
        <time>2018-02-25T08:26:20Z</time>
      </trkpt>
      <trkpt lat="45.27907" lon="6.19155">
        <ele>1474.8</ele>
        <time>2018-02-25T08:27:09Z</time>
      </trkpt>
      <trkpt lat="45.27909" lon="6.19122">
        <ele>1475.76</ele>
        <time>2018-02-25T08:27:51Z</time>
      </trkpt>
      <trkpt lat="45.27897" lon="6.19111">
        <ele>1482.01</ele>
        <time>2018-02-25T08:28:57Z</time>
      </trkpt>
      <trkpt lat="45.27906" lon="6.19082">
        <ele>1487.3</ele>
        <time>2018-02-25T08:29:35Z</time>
      </trkpt>
      <trkpt lat="45.27895" lon="6.19045">
        <ele>1492.58</ele>
        <time>2018-02-25T08:30:19Z</time>
      </trkpt>
      <trkpt lat="45.27884" lon="6.19011">
        <ele>1495.47</ele>
        <time>2018-02-25T08:31:01Z</time>
      </trkpt>
      <trkpt lat="45.27878" lon="6.18981">
        <ele>1495.47</ele>
        <time>2018-02-25T08:31:37Z</time>
      </trkpt>
      <trkpt lat="45.2788" lon="6.18943">
        <ele>1497.87</ele>
        <time>2018-02-25T08:32:36Z</time>
      </trkpt>
      <trkpt lat="45.27885" lon="6.18906">
        <ele>1503.64</ele>
        <time>2018-02-25T08:33:22Z</time>
      </trkpt>
      <trkpt lat="45.27895" lon="6.18872">
        <ele>1507.48</ele>
        <time>2018-02-25T08:34:01Z</time>
      </trkpt>
      <trkpt lat="45.2791" lon="6.18838">
        <ele>1510.85</ele>
        <time>2018-02-25T08:34:40Z</time>
      </trkpt>
      <trkpt lat="45.27924" lon="6.18808">
        <ele>1511.81</ele>
        <time>2018-02-25T08:35:17Z</time>
      </trkpt>
      <trkpt lat="45.27931" lon="6.18773">
        <ele>1515.18</ele>
        <time>2018-02-25T08:36:03Z</time>
      </trkpt>
      <trkpt lat="45.27926" lon="6.18734">
        <ele>1517.1</ele>
        <time>2018-02-25T08:36:42Z</time>
      </trkpt>
      <trkpt lat="45.2792" lon="6.18696">
        <ele>1521.42</ele>
        <time>2018-02-25T08:37:25Z</time>
      </trkpt>
      <trkpt lat="45.27917" lon="6.18655">
        <ele>1523.35</ele>
        <time>2018-02-25T08:38:08Z</time>
      </trkpt>
      <trkpt lat="45.27914" lon="6.18621">
        <ele>1525.27</ele>
        <time>2018-02-25T08:38:47Z</time>
      </trkpt>
      <trkpt lat="45.27909" lon="6.18585">
        <ele>1527.67</ele>
        <time>2018-02-25T08:39:30Z</time>
      </trkpt>
      <trkpt lat="45.27903" lon="6.18549">
        <ele>1532</ele>
        <time>2018-02-25T08:40:19Z</time>
      </trkpt>
      <trkpt lat="45.27892" lon="6.18527">
        <ele>1536.8</ele>
        <time>2018-02-25T08:40:59Z</time>
      </trkpt>
      <trkpt lat="45.27894" lon="6.18488">
        <ele>1542.09</ele>
        <time>2018-02-25T08:41:55Z</time>
      </trkpt>
      <trkpt lat="45.27892" lon="6.18469">
        <ele>1543.05</ele>
        <time>2018-02-25T08:43:46Z</time>
      </trkpt>
      <trkpt lat="45.2789" lon="6.18471">
        <ele>1544.01</ele>
        <time>2018-02-25T08:47:28Z</time>
      </trkpt>
      <trkpt lat="45.279" lon="6.18456">
        <ele>1544.98</ele>
        <time>2018-02-25T08:49:52Z</time>
      </trkpt>
      <trkpt lat="45.27904" lon="6.18423">
        <ele>1553.15</ele>
        <time>2018-02-25T08:50:42Z</time>
      </trkpt>
      <trkpt lat="45.27921" lon="6.184">
        <ele>1563.24</ele>
        <time>2018-02-25T08:51:43Z</time>
      </trkpt>
      <trkpt lat="45.27937" lon="6.18372">
        <ele>1568.53</ele>
        <time>2018-02-25T08:52:21Z</time>
      </trkpt>
      <trkpt lat="45.27954" lon="6.18337">
        <ele>1574.78</ele>
        <time>2018-02-25T08:53:07Z</time>
      </trkpt>
      <trkpt lat="45.27972" lon="6.183">
        <ele>1578.62</ele>
        <time>2018-02-25T08:53:53Z</time>
      </trkpt>
      <trkpt lat="45.27991" lon="6.18265">
        <ele>1580.06</ele>
        <time>2018-02-25T08:54:28Z</time>
      </trkpt>
      <trkpt lat="45.28" lon="6.18225">
        <ele>1585.35</ele>
        <time>2018-02-25T08:55:14Z</time>
      </trkpt>
      <trkpt lat="45.2799" lon="6.18193">
        <ele>1589.68</ele>
        <time>2018-02-25T08:56:03Z</time>
      </trkpt>
      <trkpt lat="45.27983" lon="6.18159">
        <ele>1594</ele>
        <time>2018-02-25T08:56:45Z</time>
      </trkpt>
      <trkpt lat="45.27985" lon="6.18126">
        <ele>1595.45</ele>
        <time>2018-02-25T08:57:19Z</time>
      </trkpt>
      <trkpt lat="45.27981" lon="6.18089">
        <ele>1599.77</ele>
        <time>2018-02-25T08:58:07Z</time>
      </trkpt>
      <trkpt lat="45.27979" lon="6.18054">
        <ele>1603.62</ele>
        <time>2018-02-25T08:58:50Z</time>
      </trkpt>
      <trkpt lat="45.27974" lon="6.18018">
        <ele>1607.94</ele>
        <time>2018-02-25T08:59:37Z</time>
      </trkpt>
      <trkpt lat="45.2797" lon="6.17982">
        <ele>1610.83</ele>
        <time>2018-02-25T09:00:18Z</time>
      </trkpt>
      <trkpt lat="45.27961" lon="6.17946">
        <ele>1614.19</ele>
        <time>2018-02-25T09:01:04Z</time>
      </trkpt>
      <trkpt lat="45.27967" lon="6.17911">
        <ele>1619</ele>
        <time>2018-02-25T09:02:00Z</time>
      </trkpt>
      <trkpt lat="45.27978" lon="6.17869">
        <ele>1621.88</ele>
        <time>2018-02-25T09:02:43Z</time>
      </trkpt>
      <trkpt lat="45.27986" lon="6.17832">
        <ele>1625.73</ele>
        <time>2018-02-25T09:03:24Z</time>
      </trkpt>
      <trkpt lat="45.27984" lon="6.17798">
        <ele>1630.05</ele>
        <time>2018-02-25T09:04:05Z</time>
      </trkpt>
      <trkpt lat="45.27997" lon="6.17761">
        <ele>1635.82</ele>
        <time>2018-02-25T09:04:58Z</time>
      </trkpt>
      <trkpt lat="45.27996" lon="6.17727">
        <ele>1639.19</ele>
        <time>2018-02-25T09:05:41Z</time>
      </trkpt>
      <trkpt lat="45.27993" lon="6.17693">
        <ele>1643.51</ele>
        <time>2018-02-25T09:06:23Z</time>
      </trkpt>
      <trkpt lat="45.28001" lon="6.17652">
        <ele>1648.32</ele>
        <time>2018-02-25T09:07:10Z</time>
      </trkpt>
      <trkpt lat="45.28011" lon="6.17622">
        <ele>1652.64</ele>
        <time>2018-02-25T09:07:53Z</time>
      </trkpt>
      <trkpt lat="45.28021" lon="6.17588">
        <ele>1658.89</ele>
        <time>2018-02-25T09:08:44Z</time>
      </trkpt>
      <trkpt lat="45.28023" lon="6.17553">
        <ele>1661.78</ele>
        <time>2018-02-25T09:09:26Z</time>
      </trkpt>
      <trkpt lat="45.28024" lon="6.17521">
        <ele>1665.62</ele>
        <time>2018-02-25T09:10:09Z</time>
      </trkpt>
      <trkpt lat="45.28026" lon="6.17472">
        <ele>1669.47</ele>
        <time>2018-02-25T09:10:58Z</time>
      </trkpt>
      <trkpt lat="45.28022" lon="6.17429">
        <ele>1674.27</ele>
        <time>2018-02-25T09:11:45Z</time>
      </trkpt>
      <trkpt lat="45.28015" lon="6.17395">
        <ele>1678.12</ele>
        <time>2018-02-25T09:12:28Z</time>
      </trkpt>
      <trkpt lat="45.28005" lon="6.17361">
        <ele>1683.41</ele>
        <time>2018-02-25T09:13:10Z</time>
      </trkpt>
      <trkpt lat="45.27994" lon="6.17329">
        <ele>1688.21</ele>
        <time>2018-02-25T09:13:55Z</time>
      </trkpt>
      <trkpt lat="45.27997" lon="6.17293">
        <ele>1691.58</ele>
        <time>2018-02-25T09:14:35Z</time>
      </trkpt>
      <trkpt lat="45.28006" lon="6.17278">
        <ele>1692.54</ele>
        <time>2018-02-25T09:16:51Z</time>
      </trkpt>
      <trkpt lat="45.28008" lon="6.17247">
        <ele>1697.83</ele>
        <time>2018-02-25T09:17:46Z</time>
      </trkpt>
      <trkpt lat="45.28016" lon="6.17204">
        <ele>1702.15</ele>
        <time>2018-02-25T09:18:40Z</time>
      </trkpt>
      <trkpt lat="45.28021" lon="6.17162">
        <ele>1706.48</ele>
        <time>2018-02-25T09:19:21Z</time>
      </trkpt>
      <trkpt lat="45.2803" lon="6.17122">
        <ele>1710.32</ele>
        <time>2018-02-25T09:20:02Z</time>
      </trkpt>
      <trkpt lat="45.28032" lon="6.17089">
        <ele>1711.76</ele>
        <time>2018-02-25T09:20:31Z</time>
      </trkpt>
      <trkpt lat="45.28026" lon="6.17056">
        <ele>1713.21</ele>
        <time>2018-02-25T09:21:00Z</time>
      </trkpt>
      <trkpt lat="45.28017" lon="6.1701">
        <ele>1716.09</ele>
        <time>2018-02-25T09:21:44Z</time>
      </trkpt>
      <trkpt lat="45.28004" lon="6.16981">
        <ele>1718.01</ele>
        <time>2018-02-25T09:22:14Z</time>
      </trkpt>
      <trkpt lat="45.28003" lon="6.16945">
        <ele>1718.97</ele>
        <time>2018-02-25T09:22:48Z</time>
      </trkpt>
      <trkpt lat="45.27993" lon="6.16902">
        <ele>1721.38</ele>
        <time>2018-02-25T09:23:31Z</time>
      </trkpt>
      <trkpt lat="45.27985" lon="6.16861">
        <ele>1719.94</ele>
        <time>2018-02-25T09:24:06Z</time>
      </trkpt>
      <trkpt lat="45.27973" lon="6.1683">
        <ele>1722.34</ele>
        <time>2018-02-25T09:24:38Z</time>
      </trkpt>
      <trkpt lat="45.27964" lon="6.16792">
        <ele>1724.74</ele>
        <time>2018-02-25T09:25:18Z</time>
      </trkpt>
      <trkpt lat="45.27951" lon="6.16757">
        <ele>1727.63</ele>
        <time>2018-02-25T09:25:55Z</time>
      </trkpt>
      <trkpt lat="45.27949" lon="6.16724">
        <ele>1731.47</ele>
        <time>2018-02-25T09:26:34Z</time>
      </trkpt>
      <trkpt lat="45.27936" lon="6.16691">
        <ele>1734.84</ele>
        <time>2018-02-25T09:27:13Z</time>
      </trkpt>
      <trkpt lat="45.27914" lon="6.16674">
        <ele>1738.2</ele>
        <time>2018-02-25T09:27:54Z</time>
      </trkpt>
      <trkpt lat="45.27896" lon="6.16644">
        <ele>1743.49</ele>
        <time>2018-02-25T09:28:48Z</time>
      </trkpt>
      <trkpt lat="45.27888" lon="6.16607">
        <ele>1748.29</ele>
        <time>2018-02-25T09:29:39Z</time>
      </trkpt>
      <trkpt lat="45.2788" lon="6.16573">
        <ele>1754.54</ele>
        <time>2018-02-25T09:30:29Z</time>
      </trkpt>
      <trkpt lat="45.27872" lon="6.16537">
        <ele>1760.31</ele>
        <time>2018-02-25T09:31:18Z</time>
      </trkpt>
      <trkpt lat="45.27862" lon="6.16501">
        <ele>1767.04</ele>
        <time>2018-02-25T09:32:13Z</time>
      </trkpt>
      <trkpt lat="45.27856" lon="6.16462">
        <ele>1771.85</ele>
        <time>2018-02-25T09:33:05Z</time>
      </trkpt>
      <trkpt lat="45.27842" lon="6.1643">
        <ele>1775.21</ele>
        <time>2018-02-25T09:33:48Z</time>
      </trkpt>
      <trkpt lat="45.27838" lon="6.16397">
        <ele>1780.02</ele>
        <time>2018-02-25T09:34:39Z</time>
      </trkpt>
      <trkpt lat="45.27841" lon="6.16364">
        <ele>1785.79</ele>
        <time>2018-02-25T09:35:30Z</time>
      </trkpt>
      <trkpt lat="45.27838" lon="6.1633">
        <ele>1791.07</ele>
        <time>2018-02-25T09:36:23Z</time>
      </trkpt>
      <trkpt lat="45.27818" lon="6.16306">
        <ele>1797.32</ele>
        <time>2018-02-25T09:37:18Z</time>
      </trkpt>
      <trkpt lat="45.27798" lon="6.16281">
        <ele>1804.53</ele>
        <time>2018-02-25T09:38:25Z</time>
      </trkpt>
      <trkpt lat="45.27795" lon="6.16247">
        <ele>1810.78</ele>
        <time>2018-02-25T09:39:26Z</time>
      </trkpt>
      <trkpt lat="45.27803" lon="6.16217">
        <ele>1816.07</ele>
        <time>2018-02-25T09:40:16Z</time>
      </trkpt>
      <trkpt lat="45.278" lon="6.16183">
        <ele>1821.35</ele>
        <time>2018-02-25T09:41:04Z</time>
      </trkpt>
      <trkpt lat="45.27801" lon="6.16154">
        <ele>1827.12</ele>
        <time>2018-02-25T09:41:57Z</time>
      </trkpt>
      <trkpt lat="45.27775" lon="6.16145">
        <ele>1833.85</ele>
        <time>2018-02-25T09:43:02Z</time>
      </trkpt>
      <trkpt lat="45.27781" lon="6.1611">
        <ele>1840.58</ele>
        <time>2018-02-25T09:44:01Z</time>
      </trkpt>
      <trkpt lat="45.27769" lon="6.16089">
        <ele>1846.83</ele>
        <time>2018-02-25T09:45:04Z</time>
      </trkpt>
      <trkpt lat="45.27756" lon="6.16072">
        <ele>1855</ele>
        <time>2018-02-25T09:46:10Z</time>
      </trkpt>
      <trkpt lat="45.27745" lon="6.16062">
        <ele>1862.21</ele>
        <time>2018-02-25T09:47:18Z</time>
      </trkpt>
      <trkpt lat="45.27728" lon="6.16044">
        <ele>1869.9</ele>
        <time>2018-02-25T09:48:22Z</time>
      </trkpt>
      <trkpt lat="45.27717" lon="6.16025">
        <ele>1878.07</ele>
        <time>2018-02-25T09:49:35Z</time>
      </trkpt>
      <trkpt lat="45.27692" lon="6.16016">
        <ele>1884.32</ele>
        <time>2018-02-25T09:50:26Z</time>
      </trkpt>
      <trkpt lat="45.2769" lon="6.15999">
        <ele>1886.72</ele>
        <time>2018-02-25T09:52:55Z</time>
      </trkpt>
      <trkpt lat="45.2768" lon="6.15981">
        <ele>1890.09</ele>
        <time>2018-02-25T09:55:49Z</time>
      </trkpt>
      <trkpt lat="45.27658" lon="6.15978">
        <ele>1896.82</ele>
        <time>2018-02-25T09:56:39Z</time>
      </trkpt>
      <trkpt lat="45.27637" lon="6.15961">
        <ele>1902.11</ele>
        <time>2018-02-25T09:57:18Z</time>
      </trkpt>
      <trkpt lat="45.27613" lon="6.15938">
        <ele>1907.87</ele>
        <time>2018-02-25T09:58:11Z</time>
      </trkpt>
      <trkpt lat="45.27589" lon="6.15921">
        <ele>1914.6</ele>
        <time>2018-02-25T09:59:04Z</time>
      </trkpt>
      <trkpt lat="45.27567" lon="6.15904">
        <ele>1921.33</ele>
        <time>2018-02-25T09:59:58Z</time>
      </trkpt>
      <trkpt lat="45.27547" lon="6.15881">
        <ele>1928.06</ele>
        <time>2018-02-25T10:00:52Z</time>
      </trkpt>
      <trkpt lat="45.27526" lon="6.15854">
        <ele>1936.71</ele>
        <time>2018-02-25T10:01:56Z</time>
      </trkpt>
      <trkpt lat="45.27514" lon="6.15822">
        <ele>1943.92</ele>
        <time>2018-02-25T10:02:50Z</time>
      </trkpt>
      <trkpt lat="45.27508" lon="6.15788">
        <ele>1950.17</ele>
        <time>2018-02-25T10:03:42Z</time>
      </trkpt>
      <trkpt lat="45.27504" lon="6.15745">
        <ele>1956.42</ele>
        <time>2018-02-25T10:04:40Z</time>
      </trkpt>
      <trkpt lat="45.27496" lon="6.15707">
        <ele>1961.71</ele>
        <time>2018-02-25T10:05:34Z</time>
      </trkpt>
      <trkpt lat="45.27487" lon="6.15678">
        <ele>1966.99</ele>
        <time>2018-02-25T10:06:16Z</time>
      </trkpt>
      <trkpt lat="45.27478" lon="6.15645">
        <ele>1972.76</ele>
        <time>2018-02-25T10:07:07Z</time>
      </trkpt>
      <trkpt lat="45.27466" lon="6.15608">
        <ele>1979.01</ele>
        <time>2018-02-25T10:08:00Z</time>
      </trkpt>
      <trkpt lat="45.27456" lon="6.15572">
        <ele>1983.82</ele>
        <time>2018-02-25T10:08:52Z</time>
      </trkpt>
      <trkpt lat="45.27445" lon="6.15537">
        <ele>1989.1</ele>
        <time>2018-02-25T10:09:44Z</time>
      </trkpt>
      <trkpt lat="45.27428" lon="6.15517">
        <ele>1994.87</ele>
        <time>2018-02-25T10:10:35Z</time>
      </trkpt>
      <trkpt lat="45.27403" lon="6.15529">
        <ele>2001.6</ele>
        <time>2018-02-25T10:11:36Z</time>
      </trkpt>
      <trkpt lat="45.2738" lon="6.15516">
        <ele>2009.29</ele>
        <time>2018-02-25T10:12:44Z</time>
      </trkpt>
      <trkpt lat="45.27365" lon="6.15484">
        <ele>2014.58</ele>
        <time>2018-02-25T10:13:37Z</time>
      </trkpt>
      <trkpt lat="45.27351" lon="6.15457">
        <ele>2017.94</ele>
        <time>2018-02-25T10:14:18Z</time>
      </trkpt>
      <trkpt lat="45.27336" lon="6.15422">
        <ele>2022.27</ele>
        <time>2018-02-25T10:15:13Z</time>
      </trkpt>
      <trkpt lat="45.27321" lon="6.1539">
        <ele>2027.08</ele>
        <time>2018-02-25T10:16:06Z</time>
      </trkpt>
      <trkpt lat="45.2731" lon="6.15357">
        <ele>2032.36</ele>
        <time>2018-02-25T10:16:59Z</time>
      </trkpt>
      <trkpt lat="45.27293" lon="6.15331">
        <ele>2037.17</ele>
        <time>2018-02-25T10:17:49Z</time>
      </trkpt>
      <trkpt lat="45.27285" lon="6.15298">
        <ele>2045.82</ele>
        <time>2018-02-25T10:18:59Z</time>
      </trkpt>
      <trkpt lat="45.2727" lon="6.15272">
        <ele>2052.07</ele>
        <time>2018-02-25T10:20:04Z</time>
      </trkpt>
      <trkpt lat="45.27263" lon="6.15244">
        <ele>2059.76</ele>
        <time>2018-02-25T10:21:28Z</time>
      </trkpt>
      <trkpt lat="45.27274" lon="6.15212">
        <ele>2066.01</ele>
        <time>2018-02-25T10:22:21Z</time>
      </trkpt>
      <trkpt lat="45.27259" lon="6.15194">
        <ele>2071.78</ele>
        <time>2018-02-25T10:23:10Z</time>
      </trkpt>
      <trkpt lat="45.27267" lon="6.15159">
        <ele>2081.39</ele>
        <time>2018-02-25T10:24:22Z</time>
      </trkpt>
      <trkpt lat="45.27251" lon="6.15142">
        <ele>2087.64</ele>
        <time>2018-02-25T10:25:12Z</time>
      </trkpt>
      <trkpt lat="45.27241" lon="6.15122">
        <ele>2093.89</ele>
        <time>2018-02-25T10:26:13Z</time>
      </trkpt>
      <trkpt lat="45.27221" lon="6.15109">
        <ele>2100.14</ele>
        <time>2018-02-25T10:27:05Z</time>
      </trkpt>
      <trkpt lat="45.27218" lon="6.15104">
        <ele>2102.54</ele>
        <time>2018-02-25T10:28:30Z</time>
      </trkpt>
      <trkpt lat="45.27217" lon="6.15076">
        <ele>2107.35</ele>
        <time>2018-02-25T10:29:40Z</time>
      </trkpt>
      <trkpt lat="45.27205" lon="6.1506">
        <ele>2114.08</ele>
        <time>2018-02-25T10:30:41Z</time>
      </trkpt>
      <trkpt lat="45.2719" lon="6.15056">
        <ele>2122.73</ele>
        <time>2018-02-25T10:31:57Z</time>
      </trkpt>
      <trkpt lat="45.27174" lon="6.15058">
        <ele>2130.9</ele>
        <time>2018-02-25T10:33:14Z</time>
      </trkpt>
      <trkpt lat="45.27164" lon="6.15047">
        <ele>2138.59</ele>
        <time>2018-02-25T10:34:28Z</time>
      </trkpt>
      <trkpt lat="45.27151" lon="6.15058">
        <ele>2145.32</ele>
        <time>2018-02-25T10:35:36Z</time>
      </trkpt>
      <trkpt lat="45.27141" lon="6.15049">
        <ele>2154.45</ele>
        <time>2018-02-25T10:36:56Z</time>
      </trkpt>
      <trkpt lat="45.27127" lon="6.15038">
        <ele>2162.62</ele>
        <time>2018-02-25T10:38:16Z</time>
      </trkpt>
      <trkpt lat="45.27117" lon="6.15038">
        <ele>2169.35</ele>
        <time>2018-02-25T10:39:16Z</time>
      </trkpt>
      <trkpt lat="45.27109" lon="6.15025">
        <ele>2176.08</ele>
        <time>2018-02-25T10:40:29Z</time>
      </trkpt>
      <trkpt lat="45.27092" lon="6.15038">
        <ele>2185.21</ele>
        <time>2018-02-25T10:42:00Z</time>
      </trkpt>
      <trkpt lat="45.27071" lon="6.15056">
        <ele>2191.94</ele>
        <time>2018-02-25T10:43:03Z</time>
      </trkpt>
      <trkpt lat="45.27055" lon="6.1508">
        <ele>2198.67</ele>
        <time>2018-02-25T10:44:01Z</time>
      </trkpt>
      <trkpt lat="45.27044" lon="6.15049">
        <ele>2203.96</ele>
        <time>2018-02-25T10:44:54Z</time>
      </trkpt>
      <trkpt lat="45.27034" lon="6.15035">
        <ele>2211.65</ele>
        <time>2018-02-25T10:46:10Z</time>
      </trkpt>
      <trkpt lat="45.27018" lon="6.15057">
        <ele>2217.9</ele>
        <time>2018-02-25T10:47:09Z</time>
      </trkpt>
      <trkpt lat="45.27003" lon="6.15055">
        <ele>2225.11</ele>
        <time>2018-02-25T10:48:22Z</time>
      </trkpt>
      <trkpt lat="45.26996" lon="6.15023">
        <ele>2231.84</ele>
        <time>2018-02-25T10:49:28Z</time>
      </trkpt>
      <trkpt lat="45.26983" lon="6.1505">
        <ele>2239.05</ele>
        <time>2018-02-25T10:50:45Z</time>
      </trkpt>
      <trkpt lat="45.26972" lon="6.15082">
        <ele>2245.78</ele>
        <time>2018-02-25T10:51:54Z</time>
      </trkpt>
      <trkpt lat="45.26959" lon="6.15057">
        <ele>2252.99</ele>
        <time>2018-02-25T10:53:02Z</time>
      </trkpt>
      <trkpt lat="45.26953" lon="6.15044">
        <ele>2257.79</ele>
        <time>2018-02-25T10:54:05Z</time>
      </trkpt>
      <trkpt lat="45.26939" lon="6.15075">
        <ele>2264.52</ele>
        <time>2018-02-25T10:55:14Z</time>
      </trkpt>
      <trkpt lat="45.26926" lon="6.15077">
        <ele>2270.29</ele>
        <time>2018-02-25T10:56:10Z</time>
      </trkpt>
      <trkpt lat="45.26918" lon="6.15057">
        <ele>2277.5</ele>
        <time>2018-02-25T10:57:33Z</time>
      </trkpt>
      <trkpt lat="45.26905" lon="6.15082">
        <ele>2282.79</ele>
        <time>2018-02-25T10:58:33Z</time>
      </trkpt>
      <trkpt lat="45.26897" lon="6.15049">
        <ele>2289.04</ele>
        <time>2018-02-25T10:59:40Z</time>
      </trkpt>
      <trkpt lat="45.26884" lon="6.15073">
        <ele>2296.73</ele>
        <time>2018-02-25T11:01:00Z</time>
      </trkpt>
      <trkpt lat="45.26873" lon="6.15059">
        <ele>2302.98</ele>
        <time>2018-02-25T11:02:11Z</time>
      </trkpt>
      <trkpt lat="45.26865" lon="6.15057">
        <ele>2310.19</ele>
        <time>2018-02-25T11:03:35Z</time>
      </trkpt>
      <trkpt lat="45.26856" lon="6.15087">
        <ele>2316.91</ele>
        <time>2018-02-25T11:04:47Z</time>
      </trkpt>
      <trkpt lat="45.26838" lon="6.15058">
        <ele>2324.12</ele>
        <time>2018-02-25T11:05:57Z</time>
      </trkpt>
      <trkpt lat="45.26829" lon="6.15055">
        <ele>2328.45</ele>
        <time>2018-02-25T11:07:49Z</time>
      </trkpt>
      <trkpt lat="45.26827" lon="6.15076">
        <ele>2331.81</ele>
        <time>2018-02-25T11:09:35Z</time>
      </trkpt>
      <trkpt lat="45.26813" lon="6.15071">
        <ele>2337.1</ele>
        <time>2018-02-25T11:10:36Z</time>
      </trkpt>
      <trkpt lat="45.26803" lon="6.15042">
        <ele>2344.31</ele>
        <time>2018-02-25T11:11:51Z</time>
      </trkpt>
      <trkpt lat="45.26789" lon="6.15067">
        <ele>2351.04</ele>
        <time>2018-02-25T11:13:01Z</time>
      </trkpt>
      <trkpt lat="45.26782" lon="6.15098">
        <ele>2358.73</ele>
        <time>2018-02-25T11:14:13Z</time>
      </trkpt>
      <trkpt lat="45.26766" lon="6.15069">
        <ele>2363.06</ele>
        <time>2018-02-25T11:15:04Z</time>
      </trkpt>
      <trkpt lat="45.26751" lon="6.15042">
        <ele>2369.31</ele>
        <time>2018-02-25T11:16:05Z</time>
      </trkpt>
      <trkpt lat="45.26724" lon="6.1503">
        <ele>2377.48</ele>
        <time>2018-02-25T11:17:08Z</time>
      </trkpt>
      <trkpt lat="45.26706" lon="6.15019">
        <ele>2382.76</ele>
        <time>2018-02-25T11:17:59Z</time>
      </trkpt>
      <trkpt lat="45.26695" lon="6.15044">
        <ele>2390.46</ele>
        <time>2018-02-25T11:19:13Z</time>
      </trkpt>
      <trkpt lat="45.26681" lon="6.15014">
        <ele>2398.15</ele>
        <time>2018-02-25T11:20:17Z</time>
      </trkpt>
      <trkpt lat="45.26672" lon="6.15045">
        <ele>2404.88</ele>
        <time>2018-02-25T11:21:19Z</time>
      </trkpt>
      <trkpt lat="45.26654" lon="6.15023">
        <ele>2410.64</ele>
        <time>2018-02-25T11:22:24Z</time>
      </trkpt>
      <trkpt lat="45.26636" lon="6.15003">
        <ele>2414.49</ele>
        <time>2018-02-25T11:23:09Z</time>
      </trkpt>
      <trkpt lat="45.26611" lon="6.14992">
        <ele>2419.3</ele>
        <time>2018-02-25T11:23:58Z</time>
      </trkpt>
      <trkpt lat="45.26588" lon="6.14972">
        <ele>2425.54</ele>
        <time>2018-02-25T11:25:03Z</time>
      </trkpt>
      <trkpt lat="45.26565" lon="6.14959">
        <ele>2431.79</ele>
        <time>2018-02-25T11:26:04Z</time>
      </trkpt>
      <trkpt lat="45.26544" lon="6.14948">
        <ele>2436.6</ele>
        <time>2018-02-25T11:27:06Z</time>
      </trkpt>
      <trkpt lat="45.26526" lon="6.14962">
        <ele>2443.81</ele>
        <time>2018-02-25T11:28:28Z</time>
      </trkpt>
      <trkpt lat="45.26513" lon="6.14978">
        <ele>2450.06</ele>
        <time>2018-02-25T11:29:38Z</time>
      </trkpt>
      <trkpt lat="45.26492" lon="6.14964">
        <ele>2455.82</ele>
        <time>2018-02-25T11:30:43Z</time>
      </trkpt>
      <trkpt lat="45.26486" lon="6.14932">
        <ele>2461.59</ele>
        <time>2018-02-25T11:31:50Z</time>
      </trkpt>
      <trkpt lat="45.26479" lon="6.14927">
        <ele>2469.76</ele>
        <time>2018-02-25T11:33:37Z</time>
      </trkpt>
      <trkpt lat="45.26461" lon="6.14953">
        <ele>2476.01</ele>
        <time>2018-02-25T11:34:51Z</time>
      </trkpt>
      <trkpt lat="45.26452" lon="6.14929">
        <ele>2482.26</ele>
        <time>2018-02-25T11:36:08Z</time>
      </trkpt>
      <trkpt lat="45.26436" lon="6.14918">
        <ele>2488.99</ele>
        <time>2018-02-25T11:37:19Z</time>
      </trkpt>
      <trkpt lat="45.26414" lon="6.14915">
        <ele>2493.8</ele>
        <time>2018-02-25T11:38:36Z</time>
      </trkpt>
      <trkpt lat="45.26394" lon="6.1491">
        <ele>2501.97</ele>
        <time>2018-02-25T11:39:58Z</time>
      </trkpt>
      <trkpt lat="45.26365" lon="6.1491">
        <ele>2505.33</ele>
        <time>2018-02-25T11:41:23Z</time>
      </trkpt>
      <trkpt lat="45.26331" lon="6.14918">
        <ele>2506.29</ele>
        <time>2018-02-25T11:42:04Z</time>
      </trkpt>
      <trkpt lat="45.26303" lon="6.14925">
        <ele>2510.62</ele>
        <time>2018-02-25T11:43:09Z</time>
      </trkpt>
      <trkpt lat="45.26273" lon="6.14934">
        <ele>2515.43</ele>
        <time>2018-02-25T11:44:19Z</time>
      </trkpt>
      <trkpt lat="45.26247" lon="6.14941">
        <ele>2520.71</ele>
        <time>2018-02-25T11:45:14Z</time>
      </trkpt>
      <trkpt lat="45.26223" lon="6.14943">
        <ele>2525.52</ele>
        <time>2018-02-25T11:46:09Z</time>
      </trkpt>
      <trkpt lat="45.26201" lon="6.14933">
        <ele>2530.33</ele>
        <time>2018-02-25T11:47:03Z</time>
      </trkpt>
      <trkpt lat="45.26195" lon="6.1493">
        <ele>2527.92</ele>
        <time>2018-02-25T11:53:20Z</time>
      </trkpt>
      <trkpt lat="45.26197" lon="6.14926">
        <ele>2528.89</ele>
        <time>2018-02-25T12:00:28Z</time>
      </trkpt>
      <trkpt lat="45.26197" lon="6.14929">
        <ele>2530.81</ele>
        <time>2018-02-25T12:07:41Z</time>
      </trkpt>
      <trkpt lat="45.26197" lon="6.14932">
        <ele>2526.96</ele>
        <time>2018-02-25T12:14:24Z</time>
      </trkpt>
      <trkpt lat="45.26198" lon="6.14931">
        <ele>2533.69</ele>
        <time>2018-02-25T12:21:15Z</time>
      </trkpt>
      <trkpt lat="45.26229" lon="6.14931">
        <ele>2529.37</ele>
        <time>2018-02-25T12:22:52Z</time>
      </trkpt>
      <trkpt lat="45.26259" lon="6.14921">
        <ele>2524.08</ele>
        <time>2018-02-25T12:23:01Z</time>
      </trkpt>
      <trkpt lat="45.26284" lon="6.14903">
        <ele>2521.68</ele>
        <time>2018-02-25T12:23:14Z</time>
      </trkpt>
      <trkpt lat="45.26306" lon="6.14914">
        <ele>2513.98</ele>
        <time>2018-02-25T12:23:27Z</time>
      </trkpt>
      <trkpt lat="45.26357" lon="6.14938">
        <ele>2507.74</ele>
        <time>2018-02-25T12:23:39Z</time>
      </trkpt>
      <trkpt lat="45.26383" lon="6.14945">
        <ele>2504.85</ele>
        <time>2018-02-25T12:24:06Z</time>
      </trkpt>
      <trkpt lat="45.26403" lon="6.14922">
        <ele>2501.01</ele>
        <time>2018-02-25T12:24:20Z</time>
      </trkpt>
      <trkpt lat="45.26428" lon="6.14902">
        <ele>2495.24</ele>
        <time>2018-02-25T12:24:27Z</time>
      </trkpt>
      <trkpt lat="45.26439" lon="6.1493">
        <ele>2489.47</ele>
        <time>2018-02-25T12:24:35Z</time>
      </trkpt>
      <trkpt lat="45.26452" lon="6.14954">
        <ele>2483.22</ele>
        <time>2018-02-25T12:25:15Z</time>
      </trkpt>
      <trkpt lat="45.2647" lon="6.14972">
        <ele>2473.13</ele>
        <time>2018-02-25T12:25:32Z</time>
      </trkpt>
      <trkpt lat="45.26484" lon="6.14979">
        <ele>2464.96</ele>
        <time>2018-02-25T12:25:41Z</time>
      </trkpt>
      <trkpt lat="45.26492" lon="6.14962">
        <ele>2457.75</ele>
        <time>2018-02-25T12:26:16Z</time>
      </trkpt>
      <trkpt lat="45.26514" lon="6.14977">
        <ele>2451.98</ele>
        <time>2018-02-25T12:26:23Z</time>
      </trkpt>
      <trkpt lat="45.26536" lon="6.14993">
        <ele>2448.62</ele>
        <time>2018-02-25T12:26:31Z</time>
      </trkpt>
      <trkpt lat="45.26559" lon="6.14996">
        <ele>2440.92</ele>
        <time>2018-02-25T12:27:08Z</time>
      </trkpt>
      <trkpt lat="45.26588" lon="6.15021">
        <ele>2434.68</ele>
        <time>2018-02-25T12:27:16Z</time>
      </trkpt>
      <trkpt lat="45.26617" lon="6.15034">
        <ele>2425.54</ele>
        <time>2018-02-25T12:27:28Z</time>
      </trkpt>
      <trkpt lat="45.26646" lon="6.15048">
        <ele>2418.81</ele>
        <time>2018-02-25T12:27:45Z</time>
      </trkpt>
      <trkpt lat="45.26669" lon="6.1505">
        <ele>2408.24</ele>
        <time>2018-02-25T12:28:12Z</time>
      </trkpt>
      <trkpt lat="45.26679" lon="6.15024">
        <ele>2400.07</ele>
        <time>2018-02-25T12:28:23Z</time>
      </trkpt>
      <trkpt lat="45.26698" lon="6.15059">
        <ele>2394.3</ele>
        <time>2018-02-25T12:28:37Z</time>
      </trkpt>
      <trkpt lat="45.26715" lon="6.15052">
        <ele>2384.21</ele>
        <time>2018-02-25T12:29:11Z</time>
      </trkpt>
      <trkpt lat="45.26749" lon="6.15087">
        <ele>2375.55</ele>
        <time>2018-02-25T12:29:23Z</time>
      </trkpt>
      <trkpt lat="45.26763" lon="6.15078">
        <ele>2364.98</ele>
        <time>2018-02-25T12:31:00Z</time>
      </trkpt>
      <trkpt lat="45.26784" lon="6.15101">
        <ele>2357.29</ele>
        <time>2018-02-25T12:31:11Z</time>
      </trkpt>
      <trkpt lat="45.26801" lon="6.15098">
        <ele>2346.23</ele>
        <time>2018-02-25T12:31:21Z</time>
      </trkpt>
      <trkpt lat="45.26817" lon="6.15101">
        <ele>2338.54</ele>
        <time>2018-02-25T12:32:21Z</time>
      </trkpt>
      <trkpt lat="45.26833" lon="6.15103">
        <ele>2329.89</ele>
        <time>2018-02-25T12:32:32Z</time>
      </trkpt>
      <trkpt lat="45.26835" lon="6.15051">
        <ele>2323.64</ele>
        <time>2018-02-25T12:32:41Z</time>
      </trkpt>
      <trkpt lat="45.26846" lon="6.15069">
        <ele>2315.95</ele>
        <time>2018-02-25T12:33:25Z</time>
      </trkpt>
      <trkpt lat="45.26864" lon="6.15034">
        <ele>2309.22</ele>
        <time>2018-02-25T12:33:33Z</time>
      </trkpt>
      <trkpt lat="45.26882" lon="6.15026">
        <ele>2299.13</ele>
        <time>2018-02-25T12:34:19Z</time>
      </trkpt>
      <trkpt lat="45.26899" lon="6.15022">
        <ele>2288.08</ele>
        <time>2018-02-25T12:34:29Z</time>
      </trkpt>
      <trkpt lat="45.26903" lon="6.15045">
        <ele>2281.35</ele>
        <time>2018-02-25T12:34:46Z</time>
      </trkpt>
      <trkpt lat="45.26911" lon="6.15085">
        <ele>2271.73</ele>
        <time>2018-02-25T12:35:04Z</time>
      </trkpt>
      <trkpt lat="45.26932" lon="6.15104">
        <ele>2261.16</ele>
        <time>2018-02-25T12:35:40Z</time>
      </trkpt>
      <trkpt lat="45.26951" lon="6.15099">
        <ele>2249.62</ele>
        <time>2018-02-25T12:35:48Z</time>
      </trkpt>
      <trkpt lat="45.26965" lon="6.15082">
        <ele>2240.49</ele>
        <time>2018-02-25T12:36:32Z</time>
      </trkpt>
      <trkpt lat="45.26985" lon="6.15062">
        <ele>2227.51</ele>
        <time>2018-02-25T12:36:43Z</time>
      </trkpt>
      <trkpt lat="45.26999" lon="6.15051">
        <ele>2220.78</ele>
        <time>2018-02-25T12:36:51Z</time>
      </trkpt>
      <trkpt lat="45.2702" lon="6.15064">
        <ele>2208.29</ele>
        <time>2018-02-25T12:37:21Z</time>
      </trkpt>
      <trkpt lat="45.27041" lon="6.15066">
        <ele>2198.19</ele>
        <time>2018-02-25T12:38:11Z</time>
      </trkpt>
      <trkpt lat="45.27061" lon="6.15091">
        <ele>2187.62</ele>
        <time>2018-02-25T12:38:20Z</time>
      </trkpt>
      <trkpt lat="45.27075" lon="6.15088">
        <ele>2181.37</ele>
        <time>2018-02-25T12:39:02Z</time>
      </trkpt>
      <trkpt lat="45.2709" lon="6.15072">
        <ele>2169.83</ele>
        <time>2018-02-25T12:39:21Z</time>
      </trkpt>
      <trkpt lat="45.27107" lon="6.15073">
        <ele>2159.26</ele>
        <time>2018-02-25T12:39:49Z</time>
      </trkpt>
      <trkpt lat="45.27118" lon="6.15073">
        <ele>2151.09</ele>
        <time>2018-02-25T12:40:04Z</time>
      </trkpt>
      <trkpt lat="45.27139" lon="6.15063">
        <ele>2141.47</ele>
        <time>2018-02-25T12:40:31Z</time>
      </trkpt>
      <trkpt lat="45.27153" lon="6.15075">
        <ele>2129.94</ele>
        <time>2018-02-25T12:41:06Z</time>
      </trkpt>
      <trkpt lat="45.27171" lon="6.15063">
        <ele>2122.73</ele>
        <time>2018-02-25T12:41:14Z</time>
      </trkpt>
      <trkpt lat="45.27196" lon="6.15072">
        <ele>2108.79</ele>
        <time>2018-02-25T12:41:25Z</time>
      </trkpt>
      <trkpt lat="45.27201" lon="6.15113">
        <ele>2100.62</ele>
        <time>2018-02-25T12:42:02Z</time>
      </trkpt>
      <trkpt lat="45.27227" lon="6.15121">
        <ele>2091.49</ele>
        <time>2018-02-25T12:42:13Z</time>
      </trkpt>
      <trkpt lat="45.27245" lon="6.15133">
        <ele>2084.76</ele>
        <time>2018-02-25T12:42:20Z</time>
      </trkpt>
      <trkpt lat="45.27257" lon="6.15154">
        <ele>2077.55</ele>
        <time>2018-02-25T12:42:27Z</time>
      </trkpt>
      <trkpt lat="45.27255" lon="6.15162">
        <ele>2074.18</ele>
        <time>2018-02-25T12:46:04Z</time>
      </trkpt>
      <trkpt lat="45.2726" lon="6.15184">
        <ele>2068.89</ele>
        <time>2018-02-25T12:47:11Z</time>
      </trkpt>
      <trkpt lat="45.27256" lon="6.15213">
        <ele>2061.68</ele>
        <time>2018-02-25T12:48:12Z</time>
      </trkpt>
      <trkpt lat="45.27245" lon="6.15247">
        <ele>2055.92</ele>
        <time>2018-02-25T12:48:32Z</time>
      </trkpt>
      <trkpt lat="45.27246" lon="6.15277">
        <ele>2049.19</ele>
        <time>2018-02-25T12:48:50Z</time>
      </trkpt>
      <trkpt lat="45.27257" lon="6.15292">
        <ele>2044.38</ele>
        <time>2018-02-25T12:49:20Z</time>
      </trkpt>
      <trkpt lat="45.27271" lon="6.15297">
        <ele>2041.02</ele>
        <time>2018-02-25T12:49:33Z</time>
      </trkpt>
      <trkpt lat="45.27277" lon="6.15325">
        <ele>2034.29</ele>
        <time>2018-02-25T12:49:51Z</time>
      </trkpt>
      <trkpt lat="45.27288" lon="6.15352">
        <ele>2030.44</ele>
        <time>2018-02-25T12:50:31Z</time>
      </trkpt>
      <trkpt lat="45.27316" lon="6.15368">
        <ele>2021.79</ele>
        <time>2018-02-25T12:50:47Z</time>
      </trkpt>
      <trkpt lat="45.27314" lon="6.15408">
        <ele>2018.91</ele>
        <time>2018-02-25T12:51:17Z</time>
      </trkpt>
      <trkpt lat="45.27338" lon="6.15422">
        <ele>2015.06</ele>
        <time>2018-02-25T12:51:59Z</time>
      </trkpt>
      <trkpt lat="45.27337" lon="6.15458">
        <ele>2010.25</ele>
        <time>2018-02-25T12:52:15Z</time>
      </trkpt>
      <trkpt lat="45.27366" lon="6.15484">
        <ele>2006.89</ele>
        <time>2018-02-25T12:52:29Z</time>
      </trkpt>
      <trkpt lat="45.2738" lon="6.15502">
        <ele>2003.52</ele>
        <time>2018-02-25T12:53:00Z</time>
      </trkpt>
      <trkpt lat="45.27389" lon="6.1553">
        <ele>1996.8</ele>
        <time>2018-02-25T12:53:14Z</time>
      </trkpt>
      <trkpt lat="45.27413" lon="6.15523">
        <ele>1989.1</ele>
        <time>2018-02-25T12:53:43Z</time>
      </trkpt>
      <trkpt lat="45.27431" lon="6.1553">
        <ele>1981.9</ele>
        <time>2018-02-25T12:54:07Z</time>
      </trkpt>
      <trkpt lat="45.27447" lon="6.15568">
        <ele>1975.65</ele>
        <time>2018-02-25T12:54:48Z</time>
      </trkpt>
      <trkpt lat="45.27464" lon="6.15598">
        <ele>1970.36</ele>
        <time>2018-02-25T12:55:01Z</time>
      </trkpt>
      <trkpt lat="45.27472" lon="6.15629">
        <ele>1966.51</ele>
        <time>2018-02-25T12:55:29Z</time>
      </trkpt>
      <trkpt lat="45.27474" lon="6.15656">
        <ele>1961.71</ele>
        <time>2018-02-25T12:55:44Z</time>
      </trkpt>
      <trkpt lat="45.27497" lon="6.15687">
        <ele>1956.9</ele>
        <time>2018-02-25T12:56:09Z</time>
      </trkpt>
      <trkpt lat="45.27486" lon="6.15704">
        <ele>1953.54</ele>
        <time>2018-02-25T12:57:13Z</time>
      </trkpt>
      <trkpt lat="45.27501" lon="6.15731">
        <ele>1951.61</ele>
        <time>2018-02-25T12:57:57Z</time>
      </trkpt>
      <trkpt lat="45.27503" lon="6.15754">
        <ele>1948.25</ele>
        <time>2018-02-25T12:58:14Z</time>
      </trkpt>
      <trkpt lat="45.27503" lon="6.15786">
        <ele>1942.96</ele>
        <time>2018-02-25T12:58:24Z</time>
      </trkpt>
      <trkpt lat="45.27518" lon="6.1581">
        <ele>1940.56</ele>
        <time>2018-02-25T12:59:07Z</time>
      </trkpt>
      <trkpt lat="45.27521" lon="6.15837">
        <ele>1933.83</ele>
        <time>2018-02-25T12:59:25Z</time>
      </trkpt>
      <trkpt lat="45.27534" lon="6.1586">
        <ele>1928.54</ele>
        <time>2018-02-25T13:00:31Z</time>
      </trkpt>
      <trkpt lat="45.27552" lon="6.15881">
        <ele>1921.81</ele>
        <time>2018-02-25T13:00:38Z</time>
      </trkpt>
      <trkpt lat="45.27567" lon="6.15902">
        <ele>1916.53</ele>
        <time>2018-02-25T13:01:00Z</time>
      </trkpt>
      <trkpt lat="45.27595" lon="6.1592">
        <ele>1908.83</ele>
        <time>2018-02-25T13:01:15Z</time>
      </trkpt>
      <trkpt lat="45.27611" lon="6.15935">
        <ele>1904.51</ele>
        <time>2018-02-25T13:02:09Z</time>
      </trkpt>
      <trkpt lat="45.27634" lon="6.15958">
        <ele>1899.22</ele>
        <time>2018-02-25T13:02:21Z</time>
      </trkpt>
      <trkpt lat="45.27661" lon="6.15976">
        <ele>1892.01</ele>
        <time>2018-02-25T13:02:31Z</time>
      </trkpt>
      <trkpt lat="45.27676" lon="6.15993">
        <ele>1885.76</ele>
        <time>2018-02-25T13:03:32Z</time>
      </trkpt>
      <trkpt lat="45.27694" lon="6.16021">
        <ele>1877.59</ele>
        <time>2018-02-25T13:03:42Z</time>
      </trkpt>
      <trkpt lat="45.2772" lon="6.16013">
        <ele>1872.79</ele>
        <time>2018-02-25T13:04:21Z</time>
      </trkpt>
      <trkpt lat="45.27711" lon="6.1605">
        <ele>1866.54</ele>
        <time>2018-02-25T13:04:42Z</time>
      </trkpt>
      <trkpt lat="45.27728" lon="6.16058">
        <ele>1863.17</ele>
        <time>2018-02-25T13:05:18Z</time>
      </trkpt>
      <trkpt lat="45.27749" lon="6.1605">
        <ele>1857.89</ele>
        <time>2018-02-25T13:05:33Z</time>
      </trkpt>
      <trkpt lat="45.27766" lon="6.16068">
        <ele>1848.27</ele>
        <time>2018-02-25T13:06:06Z</time>
      </trkpt>
      <trkpt lat="45.27762" lon="6.16099">
        <ele>1842.98</ele>
        <time>2018-02-25T13:07:06Z</time>
      </trkpt>
      <trkpt lat="45.27767" lon="6.16114">
        <ele>1838.18</ele>
        <time>2018-02-25T13:07:19Z</time>
      </trkpt>
      <trkpt lat="45.2776" lon="6.16146">
        <ele>1833.85</ele>
        <time>2018-02-25T13:07:29Z</time>
      </trkpt>
      <trkpt lat="45.27773" lon="6.16156">
        <ele>1828.56</ele>
        <time>2018-02-25T13:08:16Z</time>
      </trkpt>
      <trkpt lat="45.27788" lon="6.16175">
        <ele>1820.39</ele>
        <time>2018-02-25T13:08:31Z</time>
      </trkpt>
      <trkpt lat="45.27799" lon="6.16194">
        <ele>1813.66</ele>
        <time>2018-02-25T13:09:45Z</time>
      </trkpt>
      <trkpt lat="45.27793" lon="6.16232">
        <ele>1810.78</ele>
        <time>2018-02-25T13:11:02Z</time>
      </trkpt>
      <trkpt lat="45.27794" lon="6.16263">
        <ele>1803.57</ele>
        <time>2018-02-25T13:11:14Z</time>
      </trkpt>
      <trkpt lat="45.27815" lon="6.16304">
        <ele>1797.32</ele>
        <time>2018-02-25T13:11:25Z</time>
      </trkpt>
      <trkpt lat="45.27821" lon="6.16329">
        <ele>1792.03</ele>
        <time>2018-02-25T13:12:06Z</time>
      </trkpt>
      <trkpt lat="45.27824" lon="6.16374">
        <ele>1782.42</ele>
        <time>2018-02-25T13:12:15Z</time>
      </trkpt>
      <trkpt lat="45.27829" lon="6.16407">
        <ele>1777.61</ele>
        <time>2018-02-25T13:12:21Z</time>
      </trkpt>
      <trkpt lat="45.27831" lon="6.1644">
        <ele>1774.25</ele>
        <time>2018-02-25T13:12:26Z</time>
      </trkpt>
      <trkpt lat="45.27836" lon="6.16483">
        <ele>1770.41</ele>
        <time>2018-02-25T13:13:03Z</time>
      </trkpt>
      <trkpt lat="45.27836" lon="6.16518">
        <ele>1767.04</ele>
        <time>2018-02-25T13:13:12Z</time>
      </trkpt>
      <trkpt lat="45.27856" lon="6.16518">
        <ele>1761.27</ele>
        <time>2018-02-25T13:13:34Z</time>
      </trkpt>
      <trkpt lat="45.27866" lon="6.16543">
        <ele>1755.02</ele>
        <time>2018-02-25T13:13:46Z</time>
      </trkpt>
      <trkpt lat="45.27868" lon="6.16582">
        <ele>1750.7</ele>
        <time>2018-02-25T13:14:06Z</time>
      </trkpt>
      <trkpt lat="45.27874" lon="6.16641">
        <ele>1744.45</ele>
        <time>2018-02-25T13:14:36Z</time>
      </trkpt>
      <trkpt lat="45.27888" lon="6.16694">
        <ele>1740.12</ele>
        <time>2018-02-25T13:14:54Z</time>
      </trkpt>
      <trkpt lat="45.27901" lon="6.1666">
        <ele>1736.76</ele>
        <time>2018-02-25T13:15:08Z</time>
      </trkpt>
      <trkpt lat="45.27922" lon="6.16674">
        <ele>1732.91</ele>
        <time>2018-02-25T13:15:17Z</time>
      </trkpt>
      <trkpt lat="45.27942" lon="6.16692">
        <ele>1730.03</ele>
        <time>2018-02-25T13:15:26Z</time>
      </trkpt>
      <trkpt lat="45.27964" lon="6.16708">
        <ele>1728.11</ele>
        <time>2018-02-25T13:15:35Z</time>
      </trkpt>
      <trkpt lat="45.27958" lon="6.16749">
        <ele>1725.7</ele>
        <time>2018-02-25T13:15:53Z</time>
      </trkpt>
      <trkpt lat="45.27967" lon="6.16789">
        <ele>1722.34</ele>
        <time>2018-02-25T13:15:58Z</time>
      </trkpt>
      <trkpt lat="45.27979" lon="6.16839">
        <ele>1717.05</ele>
        <time>2018-02-25T13:16:05Z</time>
      </trkpt>
      <trkpt lat="45.27987" lon="6.16871">
        <ele>1716.09</ele>
        <time>2018-02-25T13:16:23Z</time>
      </trkpt>
      <trkpt lat="45.27992" lon="6.16907">
        <ele>1717.05</ele>
        <time>2018-02-25T13:17:11Z</time>
      </trkpt>
      <trkpt lat="45.27999" lon="6.16953">
        <ele>1715.61</ele>
        <time>2018-02-25T13:17:43Z</time>
      </trkpt>
      <trkpt lat="45.28015" lon="6.17022">
        <ele>1711.76</ele>
        <time>2018-02-25T13:17:59Z</time>
      </trkpt>
      <trkpt lat="45.28025" lon="6.17085">
        <ele>1707.44</ele>
        <time>2018-02-25T13:18:15Z</time>
      </trkpt>
      <trkpt lat="45.28022" lon="6.17144">
        <ele>1705.04</ele>
        <time>2018-02-25T13:18:30Z</time>
      </trkpt>
      <trkpt lat="45.2802" lon="6.17182">
        <ele>1701.19</ele>
        <time>2018-02-25T13:19:10Z</time>
      </trkpt>
      <trkpt lat="45.28018" lon="6.17219">
        <ele>1698.31</ele>
        <time>2018-02-25T13:19:19Z</time>
      </trkpt>
      <trkpt lat="45.28012" lon="6.17254">
        <ele>1693.5</ele>
        <time>2018-02-25T13:19:36Z</time>
      </trkpt>
      <trkpt lat="45.28011" lon="6.17291">
        <ele>1689.17</ele>
        <time>2018-02-25T13:19:47Z</time>
      </trkpt>
      <trkpt lat="45.28005" lon="6.17327">
        <ele>1682.44</ele>
        <time>2018-02-25T13:20:04Z</time>
      </trkpt>
      <trkpt lat="45.28013" lon="6.17356">
        <ele>1678.12</ele>
        <time>2018-02-25T13:20:36Z</time>
      </trkpt>
      <trkpt lat="45.28017" lon="6.17386">
        <ele>1672.35</ele>
        <time>2018-02-25T13:21:01Z</time>
      </trkpt>
      <trkpt lat="45.28022" lon="6.17426">
        <ele>1668.02</ele>
        <time>2018-02-25T13:21:09Z</time>
      </trkpt>
      <trkpt lat="45.28026" lon="6.1748">
        <ele>1662.26</ele>
        <time>2018-02-25T13:21:21Z</time>
      </trkpt>
      <trkpt lat="45.28031" lon="6.17528">
        <ele>1659.37</ele>
        <time>2018-02-25T13:21:40Z</time>
      </trkpt>
      <trkpt lat="45.28034" lon="6.17563">
        <ele>1656.01</ele>
        <time>2018-02-25T13:21:53Z</time>
      </trkpt>
      <trkpt lat="45.28021" lon="6.17589">
        <ele>1652.16</ele>
        <time>2018-02-25T13:22:35Z</time>
      </trkpt>
      <trkpt lat="45.28018" lon="6.17629">
        <ele>1648.8</ele>
        <time>2018-02-25T13:22:45Z</time>
      </trkpt>
      <trkpt lat="45.28015" lon="6.17669">
        <ele>1643.03</ele>
        <time>2018-02-25T13:22:56Z</time>
      </trkpt>
      <trkpt lat="45.28018" lon="6.17702">
        <ele>1640.63</ele>
        <time>2018-02-25T13:23:06Z</time>
      </trkpt>
      <trkpt lat="45.28011" lon="6.17729">
        <ele>1634.86</ele>
        <time>2018-02-25T13:23:34Z</time>
      </trkpt>
      <trkpt lat="45.2801" lon="6.17764">
        <ele>1631.98</ele>
        <time>2018-02-25T13:23:45Z</time>
      </trkpt>
      <trkpt lat="45.28002" lon="6.17787">
        <ele>1626.69</ele>
        <time>2018-02-25T13:24:02Z</time>
      </trkpt>
      <trkpt lat="45.27994" lon="6.17828">
        <ele>1620.44</ele>
        <time>2018-02-25T13:24:22Z</time>
      </trkpt>
      <trkpt lat="45.27984" lon="6.17887">
        <ele>1615.15</ele>
        <time>2018-02-25T13:24:34Z</time>
      </trkpt>
      <trkpt lat="45.27984" lon="6.17946">
        <ele>1610.35</ele>
        <time>2018-02-25T13:24:46Z</time>
      </trkpt>
      <trkpt lat="45.27986" lon="6.17985">
        <ele>1606.5</ele>
        <time>2018-02-25T13:24:54Z</time>
      </trkpt>
      <trkpt lat="45.27985" lon="6.18037">
        <ele>1599.77</ele>
        <time>2018-02-25T13:25:34Z</time>
      </trkpt>
      <trkpt lat="45.27992" lon="6.18074">
        <ele>1595.45</ele>
        <time>2018-02-25T13:25:50Z</time>
      </trkpt>
      <trkpt lat="45.27996" lon="6.18112">
        <ele>1593.04</ele>
        <time>2018-02-25T13:25:59Z</time>
      </trkpt>
      <trkpt lat="45.27996" lon="6.18144">
        <ele>1591.6</ele>
        <time>2018-02-25T13:26:15Z</time>
      </trkpt>
      <trkpt lat="45.28005" lon="6.18177">
        <ele>1589.2</ele>
        <time>2018-02-25T13:26:30Z</time>
      </trkpt>
      <trkpt lat="45.28013" lon="6.18222">
        <ele>1585.83</ele>
        <time>2018-02-25T13:27:39Z</time>
      </trkpt>
      <trkpt lat="45.28008" lon="6.18279">
        <ele>1580.54</ele>
        <time>2018-02-25T13:27:55Z</time>
      </trkpt>
      <trkpt lat="45.27993" lon="6.1831">
        <ele>1579.58</ele>
        <time>2018-02-25T13:28:11Z</time>
      </trkpt>
      <trkpt lat="45.27975" lon="6.18342">
        <ele>1576.22</ele>
        <time>2018-02-25T13:28:52Z</time>
      </trkpt>
      <trkpt lat="45.27956" lon="6.18352">
        <ele>1569.97</ele>
        <time>2018-02-25T13:29:45Z</time>
      </trkpt>
      <trkpt lat="45.27958" lon="6.18383">
        <ele>1566.12</ele>
        <time>2018-02-25T13:30:17Z</time>
      </trkpt>
      <trkpt lat="45.27939" lon="6.18385">
        <ele>1559.4</ele>
        <time>2018-02-25T13:30:53Z</time>
      </trkpt>
      <trkpt lat="45.27925" lon="6.18412">
        <ele>1554.59</ele>
        <time>2018-02-25T13:31:06Z</time>
      </trkpt>
      <trkpt lat="45.27901" lon="6.18414">
        <ele>1545.46</ele>
        <time>2018-02-25T13:31:28Z</time>
      </trkpt>
      <trkpt lat="45.27914" lon="6.1845">
        <ele>1540.17</ele>
        <time>2018-02-25T13:31:44Z</time>
      </trkpt>
      <trkpt lat="45.27889" lon="6.18471">
        <ele>1532</ele>
        <time>2018-02-25T13:32:22Z</time>
      </trkpt>
      <trkpt lat="45.27894" lon="6.18518">
        <ele>1527.19</ele>
        <time>2018-02-25T13:32:49Z</time>
      </trkpt>
      <trkpt lat="45.27898" lon="6.18543">
        <ele>1520.94</ele>
        <time>2018-02-25T13:33:34Z</time>
      </trkpt>
      <trkpt lat="45.27906" lon="6.18574">
        <ele>1516.62</ele>
        <time>2018-02-25T13:33:47Z</time>
      </trkpt>
      <trkpt lat="45.27906" lon="6.18611">
        <ele>1511.81</ele>
        <time>2018-02-25T13:33:54Z</time>
      </trkpt>
      <trkpt lat="45.27906" lon="6.18657">
        <ele>1507.48</ele>
        <time>2018-02-25T13:34:07Z</time>
      </trkpt>
      <trkpt lat="45.27906" lon="6.18686">
        <ele>1504.6</ele>
        <time>2018-02-25T13:35:29Z</time>
      </trkpt>
      <trkpt lat="45.27906" lon="6.18728">
        <ele>1500.76</ele>
        <time>2018-02-25T13:35:55Z</time>
      </trkpt>
      <trkpt lat="45.27889" lon="6.18743">
        <ele>1497.39</ele>
        <time>2018-02-25T13:36:02Z</time>
      </trkpt>
      <trkpt lat="45.27896" lon="6.18768">
        <ele>1495.47</ele>
        <time>2018-02-25T13:36:30Z</time>
      </trkpt>
      <trkpt lat="45.27883" lon="6.18796">
        <ele>1492.1</ele>
        <time>2018-02-25T13:36:36Z</time>
      </trkpt>
      <trkpt lat="45.27867" lon="6.18858">
        <ele>1489.22</ele>
        <time>2018-02-25T13:36:50Z</time>
      </trkpt>
      <trkpt lat="45.27859" lon="6.18891">
        <ele>1487.78</ele>
        <time>2018-02-25T13:37:03Z</time>
      </trkpt>
      <trkpt lat="45.27858" lon="6.18936">
        <ele>1484.41</ele>
        <time>2018-02-25T13:37:14Z</time>
      </trkpt>
      <trkpt lat="45.27851" lon="6.18962">
        <ele>1479.61</ele>
        <time>2018-02-25T13:37:30Z</time>
      </trkpt>
      <trkpt lat="45.27847" lon="6.18986">
        <ele>1473.84</ele>
        <time>2018-02-25T13:37:42Z</time>
      </trkpt>
      <trkpt lat="45.27851" lon="6.19043">
        <ele>1470.47</ele>
        <time>2018-02-25T13:37:57Z</time>
      </trkpt>
      <trkpt lat="45.27862" lon="6.19076">
        <ele>1467.59</ele>
        <time>2018-02-25T13:38:03Z</time>
      </trkpt>
      <trkpt lat="45.27871" lon="6.19109">
        <ele>1465.67</ele>
        <time>2018-02-25T13:38:08Z</time>
      </trkpt>
      <trkpt lat="45.27874" lon="6.19136">
        <ele>1461.34</ele>
        <time>2018-02-25T13:38:17Z</time>
      </trkpt>
      <trkpt lat="45.27867" lon="6.19154">
        <ele>1455.09</ele>
        <time>2018-02-25T13:38:43Z</time>
      </trkpt>
      <trkpt lat="45.27882" lon="6.19175">
        <ele>1451.73</ele>
        <time>2018-02-25T13:38:56Z</time>
      </trkpt>
      <trkpt lat="45.27888" lon="6.19245">
        <ele>1448.36</ele>
        <time>2018-02-25T13:39:13Z</time>
      </trkpt>
      <trkpt lat="45.27899" lon="6.19274">
        <ele>1445.48</ele>
        <time>2018-02-25T13:39:18Z</time>
      </trkpt>
      <trkpt lat="45.27901" lon="6.19306">
        <ele>1440.67</ele>
        <time>2018-02-25T13:39:25Z</time>
      </trkpt>
      <trkpt lat="45.27905" lon="6.19344">
        <ele>1434.91</ele>
        <time>2018-02-25T13:39:35Z</time>
      </trkpt>
      <trkpt lat="45.27922" lon="6.19363">
        <ele>1432.02</ele>
        <time>2018-02-25T13:39:42Z</time>
      </trkpt>
      <trkpt lat="45.27925" lon="6.19389">
        <ele>1426.73</ele>
        <time>2018-02-25T13:39:49Z</time>
      </trkpt>
      <trkpt lat="45.2794" lon="6.19412">
        <ele>1422.41</ele>
        <time>2018-02-25T13:39:57Z</time>
      </trkpt>
      <trkpt lat="45.27954" lon="6.19438">
        <ele>1420.49</ele>
        <time>2018-02-25T13:41:02Z</time>
      </trkpt>
      <trkpt lat="45.27974" lon="6.19484">
        <ele>1417.6</ele>
        <time>2018-02-25T13:41:16Z</time>
      </trkpt>
      <trkpt lat="45.27989" lon="6.19532">
        <ele>1415.68</ele>
        <time>2018-02-25T13:41:33Z</time>
      </trkpt>
      <trkpt lat="45.28004" lon="6.1957">
        <ele>1411.35</ele>
        <time>2018-02-25T13:41:53Z</time>
      </trkpt>
      <trkpt lat="45.28021" lon="6.19596">
        <ele>1408.95</ele>
        <time>2018-02-25T13:42:53Z</time>
      </trkpt>
      <trkpt lat="45.28039" lon="6.19631">
        <ele>1406.07</ele>
        <time>2018-02-25T13:43:03Z</time>
      </trkpt>
      <trkpt lat="45.28054" lon="6.19678">
        <ele>1401.74</ele>
        <time>2018-02-25T13:43:19Z</time>
      </trkpt>
      <trkpt lat="45.28076" lon="6.19719">
        <ele>1398.37</ele>
        <time>2018-02-25T13:43:32Z</time>
      </trkpt>
      <trkpt lat="45.28091" lon="6.19754">
        <ele>1397.41</ele>
        <time>2018-02-25T13:43:58Z</time>
      </trkpt>
      <trkpt lat="45.28091" lon="6.19792">
        <ele>1395.49</ele>
        <time>2018-02-25T13:44:11Z</time>
      </trkpt>
      <trkpt lat="45.28101" lon="6.19854">
        <ele>1392.61</ele>
        <time>2018-02-25T13:44:37Z</time>
      </trkpt>
      <trkpt lat="45.28119" lon="6.19879">
        <ele>1390.68</ele>
        <time>2018-02-25T13:45:51Z</time>
      </trkpt>
      <trkpt lat="45.28114" lon="6.1992">
        <ele>1389.24</ele>
        <time>2018-02-25T13:46:24Z</time>
      </trkpt>
      <trkpt lat="45.28128" lon="6.19962">
        <ele>1385.88</ele>
        <time>2018-02-25T13:46:38Z</time>
      </trkpt>
      <trkpt lat="45.28141" lon="6.19994">
        <ele>1382.51</ele>
        <time>2018-02-25T13:46:46Z</time>
      </trkpt>
      <trkpt lat="45.28133" lon="6.20022">
        <ele>1374.82</ele>
        <time>2018-02-25T13:47:27Z</time>
      </trkpt>
      <trkpt lat="45.28118" lon="6.20023">
        <ele>1370.5</ele>
        <time>2018-02-25T13:47:42Z</time>
      </trkpt>
      <trkpt lat="45.28135" lon="6.20061">
        <ele>1366.65</ele>
        <time>2018-02-25T13:48:03Z</time>
      </trkpt>
      <trkpt lat="45.28151" lon="6.20084">
        <ele>1361.84</ele>
        <time>2018-02-25T13:48:11Z</time>
      </trkpt>
      <trkpt lat="45.28186" lon="6.20122">
        <ele>1356.56</ele>
        <time>2018-02-25T13:48:27Z</time>
      </trkpt>
      <trkpt lat="45.28205" lon="6.20146">
        <ele>1351.27</ele>
        <time>2018-02-25T13:48:46Z</time>
      </trkpt>
      <trkpt lat="45.28227" lon="6.20193">
        <ele>1346.94</ele>
        <time>2018-02-25T13:48:58Z</time>
      </trkpt>
      <trkpt lat="45.28247" lon="6.20258">
        <ele>1337.81</ele>
        <time>2018-02-25T13:49:24Z</time>
      </trkpt>
      <trkpt lat="45.28263" lon="6.20287">
        <ele>1333.01</ele>
        <time>2018-02-25T13:50:01Z</time>
      </trkpt>
      <trkpt lat="45.28257" lon="6.20315">
        <ele>1320.99</ele>
        <time>2018-02-25T13:50:22Z</time>
      </trkpt>
      <trkpt lat="45.28278" lon="6.20312">
        <ele>1318.59</ele>
        <time>2018-02-25T13:50:44Z</time>
      </trkpt>
      <trkpt lat="45.28286" lon="6.20352">
        <ele>1315.7</ele>
        <time>2018-02-25T13:51:07Z</time>
      </trkpt>
      <trkpt lat="45.28312" lon="6.20354">
        <ele>1310.9</ele>
        <time>2018-02-25T13:51:46Z</time>
      </trkpt>
      <trkpt lat="45.28307" lon="6.20394">
        <ele>1307.53</ele>
        <time>2018-02-25T13:52:13Z</time>
      </trkpt>
      <trkpt lat="45.28309" lon="6.20414">
        <ele>1303.69</ele>
        <time>2018-02-25T13:55:05Z</time>
      </trkpt>
      <trkpt lat="45.28321" lon="6.20449">
        <ele>1300.8</ele>
        <time>2018-02-25T13:56:28Z</time>
      </trkpt>
      <trkpt lat="45.28326" lon="6.20483">
        <ele>1295.99</ele>
        <time>2018-02-25T13:56:39Z</time>
      </trkpt>
      <trkpt lat="45.28339" lon="6.20519">
        <ele>1293.59</ele>
        <time>2018-02-25T13:56:49Z</time>
      </trkpt>
      <trkpt lat="45.28349" lon="6.20545">
        <ele>1292.63</ele>
        <time>2018-02-25T13:57:23Z</time>
      </trkpt>
      <trkpt lat="45.28351" lon="6.20581">
        <ele>1288.3</ele>
        <time>2018-02-25T13:57:52Z</time>
      </trkpt>
      <trkpt lat="45.2836" lon="6.2061">
        <ele>1285.42</ele>
        <time>2018-02-25T14:00:15Z</time>
      </trkpt>
      <trkpt lat="45.28345" lon="6.20628">
        <ele>1279.17</ele>
        <time>2018-02-25T14:00:30Z</time>
      </trkpt>
      <trkpt lat="45.28331" lon="6.20647">
        <ele>1271.48</ele>
        <time>2018-02-25T14:00:45Z</time>
      </trkpt>
      <trkpt lat="45.28349" lon="6.20687">
        <ele>1267.64</ele>
        <time>2018-02-25T14:00:58Z</time>
      </trkpt>
      <trkpt lat="45.28359" lon="6.20725">
        <ele>1261.39</ele>
        <time>2018-02-25T14:01:19Z</time>
      </trkpt>
      <trkpt lat="45.28357" lon="6.20768">
        <ele>1249.37</ele>
        <time>2018-02-25T14:01:29Z</time>
      </trkpt>
      <trkpt lat="45.28357" lon="6.20803">
        <ele>1242.64</ele>
        <time>2018-02-25T14:02:06Z</time>
      </trkpt>
      <trkpt lat="45.28348" lon="6.20831">
        <ele>1233.51</ele>
        <time>2018-02-25T14:02:14Z</time>
      </trkpt>
      <trkpt lat="45.28333" lon="6.20843">
        <ele>1226.78</ele>
        <time>2018-02-25T14:02:36Z</time>
      </trkpt>
      <trkpt lat="45.28328" lon="6.20861">
        <ele>1222.45</ele>
        <time>2018-02-25T14:02:46Z</time>
      </trkpt>
      <trkpt lat="45.28317" lon="6.20911">
        <ele>1212.84</ele>
        <time>2018-02-25T14:03:00Z</time>
      </trkpt>
      <trkpt lat="45.28317" lon="6.20941">
        <ele>1207.07</ele>
        <time>2018-02-25T14:03:09Z</time>
      </trkpt>
      <trkpt lat="45.28321" lon="6.20976">
        <ele>1204.19</ele>
        <time>2018-02-25T14:03:27Z</time>
      </trkpt>
      <trkpt lat="45.28301" lon="6.20995">
        <ele>1194.09</ele>
        <time>2018-02-25T14:03:59Z</time>
      </trkpt>
      <trkpt lat="45.28294" lon="6.20995">
        <ele>1191.21</ele>
        <time>2018-02-25T14:06:34Z</time>
      </trkpt>
      <trkpt lat="45.28292" lon="6.21">
        <ele>1194.58</ele>
        <time>2018-02-25T14:13:05Z</time>
      </trkpt>
      <trkpt lat="45.28291" lon="6.21002">
        <ele>1197.94</ele>
        <time>2018-02-25T14:17:15Z</time>
      </trkpt>
      <trkpt lat="45.28292" lon="6.21">
        <ele>1197.94</ele>
        <time>2018-02-25T14:17:25Z</time>
      </trkpt>
    </trkseg>
  </trk>
</gpx>